Time;durP1;ratioP1;P1;durP2;ratioP2;P2;SDS_P1;SDS_P2;PMS_P1;PMS_P2;Temp;Humidity;BMP_temperature;BMP_pressure;BME280_temperature;BME280_humidity;BME280_pressure;Samples;Min_cycle;Max_cycle;Signal;HPM_P1;HPM_P2
2022/02/20 00:02:17;;;;;;;5.57;1.80;;;5.60;88.80;;;;;;4985215;28;20678;-89
2022/02/20 00:04:45;;;;;;;4.63;2.33;;;5.60;88.40;;;;;;5002871;28;20182;-89
2022/02/20 00:07:11;;;;;;;5.47;2.50;;;5.70;85.70;;;;;;4999927;28;20194;-88
2022/02/20 00:09:39;;;;;;;6.80;2.40;;;5.80;88.40;;;;;;5004654;28;20263;-88
2022/02/20 00:12:05;;;;;;;5.10;2.27;;;5.80;86.30;;;;;;5007039;28;20192;-88
2022/02/20 00:14:30;;;;;;;5.13;2.30;;;5.80;84.50;;;;;;5007929;28;20194;-88
2022/02/20 00:16:56;;;;;;;3.73;1.90;;;5.80;85.50;;;;;;5025073;28;20202;-88
2022/02/20 00:19:22;;;;;;;6.30;2.00;;;5.80;83.00;;;;;;5010964;28;21640;-89
2022/02/20 00:21:47;;;;;;;2.87;2.00;;;5.90;82.20;;;;;;5008370;28;20188;-89
2022/02/20 00:24:15;;;;;;;9.37;1.80;;;5.90;83.10;;;;;;5008036;28;20244;-88
2022/02/20 00:26:41;;;;;;;7.47;2.67;;;6.00;81.60;;;;;;5003643;28;20197;-89
2022/02/20 00:29:06;;;;;;;7.80;2.33;;;6.00;80.80;;;;;;5000020;28;20190;-89
2022/02/20 00:31:32;;;;;;;6.17;2.13;;;6.10;78.90;;;;;;5002898;28;20568;-89
2022/02/20 00:33:58;;;;;;;3.93;2.10;;;6.10;80.40;;;;;;5000690;28;20340;-89
2022/02/20 00:36:23;;;;;;;5.07;2.10;;;6.10;80.40;;;;;;5001396;28;20715;-89
2022/02/20 00:38:49;;;;;;;8.03;2.10;;;6.20;79.60;;;;;;5003252;28;20198;-89
2022/02/20 00:41:15;;;;;;;5.27;2.30;;;6.20;79.50;;;;;;5003135;28;20213;-89
2022/02/20 00:43:40;;;;;;;4.43;1.70;;;6.30;79.70;;;;;;4998095;28;20264;-88
2022/02/20 00:46:06;;;;;;;5.27;2.57;;;6.30;77.40;;;;;;5008928;28;20186;-88
2022/02/20 00:48:32;;;;;;;6.77;2.67;;;6.40;80.10;;;;;;5001707;28;20225;-89
2022/02/20 00:51:00;;;;;;;4.40;1.80;;;6.30;80.50;;;;;;4999603;28;20200;-89
2022/02/20 00:53:36;;;;;;;3.53;2.03;;;6.40;78.50;;;;;;4996979;28;20760;-89
2022/02/20 00:56:01;;;;;;;6.10;1.90;;;6.40;77.60;;;;;;5002296;28;20201;-89
2022/02/20 00:58:30;;;;;;;5.63;1.77;;;6.50;79.80;;;;;;4983949;28;20620;-89
2022/02/20 01:01:06;;;;;;;4.50;2.47;;;6.50;77.10;;;;;;5006437;28;20201;-89
2022/02/20 01:03:35;;;;;;;2.97;1.70;;;6.50;80.20;;;;;;4998423;28;20222;-89
2022/02/20 01:06:00;;;;;;;3.30;1.60;;;6.50;78.10;;;;;;5001096;28;20209;-89
2022/02/20 01:08:27;;;;;;;2.50;1.73;;;6.60;76.80;;;;;;5000918;28;20189;-89
2022/02/20 01:10:55;;;;;;;3.27;2.03;;;6.60;77.00;;;;;;4998067;28;20368;-89
2022/02/20 01:13:21;;;;;;;2.70;1.73;;;6.60;77.10;;;;;;4995350;28;20224;-89
2022/02/20 01:15:47;;;;;;;2.17;1.50;;;6.60;79.10;;;;;;5000384;28;20201;-89
2022/02/20 01:18:15;;;;;;;5.53;1.93;;;6.60;76.00;;;;;;4999716;28;20193;-89
2022/02/20 01:20:55;;;;;;;4.67;2.43;;;6.60;77.60;;;;;;5002868;28;20301;-88
2022/02/20 01:23:23;;;;;;;3.23;1.70;;;6.60;76.30;;;;;;4993371;28;20216;-88
2022/02/20 01:25:49;;;;;;;6.43;2.13;;;6.60;78.30;;;;;;4996274;28;20626;-88
2022/02/20 01:28:15;;;;;;;4.90;2.03;;;6.50;79.40;;;;;;4997845;28;20229;-88
2022/02/20 01:30:40;;;;;;;4.87;2.03;;;6.60;76.80;;;;;;4997955;28;20190;-88
2022/02/20 01:33:06;;;;;;;4.03;1.67;;;6.50;77.50;;;;;;4999084;28;20281;-88
2022/02/20 01:35:32;;;;;;;5.03;1.70;;;6.60;77.10;;;;;;4998742;28;20593;-88
2022/02/20 01:37:58;;;;;;;8.33;2.10;;;6.60;76.80;;;;;;5003899;28;20243;-89
2022/02/20 01:40:26;;;;;;;4.43;1.97;;;6.60;78.30;;;;;;4998272;28;20305;-88
2022/02/20 01:42:52;;;;;;;4.77;2.23;;;6.50;77.80;;;;;;4999949;28;20209;-89
2022/02/20 01:45:17;;;;;;;5.63;2.47;;;6.50;79.60;;;;;;5000043;28;20200;-89
2022/02/20 01:47:43;;;;;;;1.80;1.50;;;6.60;78.50;;;;;;5004534;28;20269;-88
2022/02/20 01:50:11;;;;;;;6.23;2.17;;;6.60;78.50;;;;;;5013311;28;20216;-87
2022/02/20 01:52:38;;;;;;;5.60;2.47;;;6.60;79.30;;;;;;5024770;28;20221;-88
2022/02/20 01:55:07;;;;;;;4.17;2.37;;;6.50;80.30;;;;;;5025430;28;20174;-87
2022/02/20 01:57:35;;;;;;;3.30;2.20;;;6.60;78.70;;;;;;5020797;28;20263;-87
2022/02/20 02:00:03;;;;;;;2.90;1.90;;;6.60;77.80;;;;;;5023374;28;20268;-88
2022/02/20 02:02:28;;;;;;;2.77;2.07;;;6.60;79.20;;;;;;5012976;28;20248;-88
2022/02/20 02:04:54;;;;;;;5.60;2.53;;;6.60;78.60;;;;;;4997903;28;21348;-89
2022/02/20 02:07:20;;;;;;;8.53;2.03;;;6.60;77.90;;;;;;4996201;28;20197;-88
2022/02/20 02:09:45;;;;;;;8.43;2.00;;;6.70;79.50;;;;;;5002260;28;20650;-88
2022/02/20 02:12:11;;;;;;;6.27;2.00;;;6.60;83.10;;;;;;5001305;28;20192;-88
2022/02/20 02:14:52;;;;;;;3.33;1.63;;;6.60;82.80;;;;;;4998361;28;20197;-88
2022/02/20 02:17:17;;;;;;;4.53;2.00;;;6.50;82.20;;;;;;5001792;28;20224;-88
2022/02/20 02:19:43;;;;;;;2.03;1.47;;;6.50;83.70;;;;;;4998672;28;20245;-88
2022/02/20 02:22:09;;;;;;;4.70;1.87;;;6.50;83.20;;;;;;4997389;28;20198;-88
2022/02/20 02:24:35;;;;;;;2.60;1.80;;;6.40;82.70;;;;;;5003614;28;20190;-88
2022/02/20 02:27:02;;;;;;;6.13;2.30;;;6.50;81.30;;;;;;4999126;28;20206;-88
2022/02/20 02:29:28;;;;;;;5.03;1.70;;;6.50;83.30;;;;;;4997227;28;20318;-88
2022/02/20 02:31:53;;;;;;;4.50;1.43;;;6.50;82.80;;;;;;4997749;28;20719;-88
2022/02/20 02:34:22;;;;;;;6.00;2.40;;;6.40;84.90;;;;;;5000409;28;20230;-88
2022/02/20 02:36:52;;;;;;;4.87;1.70;;;6.40;86.10;;;;;;4998681;28;20194;-88
2022/02/20 02:39:17;;;;;;;3.67;1.70;;;6.30;86.70;;;;;;4997496;28;20191;-88
2022/02/20 02:41:44;;;;;;;5.27;1.63;;;6.30;88.40;;;;;;5001144;28;20194;-88
2022/02/20 02:44:10;;;;;;;3.33;1.90;;;6.30;86.20;;;;;;5003538;28;20339;-88
2022/02/20 02:46:35;;;;;;;2.33;1.50;;;6.30;87.30;;;;;;5002357;28;20635;-89
2022/02/20 02:49:03;;;;;;;4.33;1.83;;;6.30;88.60;;;;;;5004157;28;20268;-88
2022/02/20 02:51:29;;;;;;;3.07;1.67;;;6.40;88.10;;;;;;5001195;28;20285;-87
2022/02/20 02:53:56;;;;;;;4.97;2.13;;;6.40;87.90;;;;;;5011144;28;20359;-88
2022/02/20 02:56:22;;;;;;;5.17;1.80;;;6.30;88.40;;;;;;4999860;28;20200;-88
2022/02/20 02:58:48;;;;;;;5.20;1.97;;;6.20;88.00;;;;;;5002020;28;20396;-88
2022/02/20 03:01:14;;;;;;;5.33;2.00;;;6.20;88.30;;;;;;5001213;28;20714;-89
2022/02/20 03:03:40;;;;;;;3.50;1.70;;;6.10;90.90;;;;;;5000792;28;20684;-88
2022/02/20 03:06:13;;;;;;;3.00;1.83;;;6.10;92.20;;;;;;5006738;28;20289;-88
2022/02/20 03:08:39;;;;;;;4.70;1.80;;;6.00;93.30;;;;;;5003656;28;20204;-88
2022/02/20 03:11:05;;;;;;;2.97;1.73;;;6.00;93.10;;;;;;4998959;28;20189;-88
2022/02/20 03:13:32;;;;;;;4.13;2.13;;;6.10;94.50;;;;;;4999562;28;20866;-88
2022/02/20 03:15:59;;;;;;;3.83;1.90;;;6.10;93.60;;;;;;5004635;28;20259;-89
2022/02/20 03:18:25;;;;;;;6.43;2.00;;;6.00;95.30;;;;;;4999877;28;20252;-88
2022/02/20 03:20:51;;;;;;;4.83;2.07;;;5.90;96.40;;;;;;5000042;28;20217;-88
2022/02/20 03:23:17;;;;;;;3.77;1.60;;;5.90;95.60;;;;;;5003155;28;20214;-88
2022/02/20 03:25:42;;;;;;;3.77;1.73;;;5.90;95.90;;;;;;5001433;28;20185;-89
2022/02/20 03:28:08;;;;;;;4.37;1.77;;;5.90;95.90;;;;;;4996282;28;20185;-88
2022/02/20 03:30:34;;;;;;;5.50;1.57;;;5.80;97.40;;;;;;5005732;28;20284;-88
2022/02/20 03:33:00;;;;;;;3.40;1.70;;;5.80;95.90;;;;;;5003097;28;20293;-88
2022/02/20 03:35:28;;;;;;;4.00;1.90;;;5.80;97.00;;;;;;4996337;28;20694;-89
2022/02/20 03:37:54;;;;;;;5.17;2.40;;;5.80;98.80;;;;;;5013272;28;20194;-88
2022/02/20 03:40:20;;;;;;;4.23;2.07;;;5.80;98.00;;;;;;4998620;28;20210;-89
2022/02/20 03:42:47;;;;;;;3.23;1.50;;;5.80;97.30;;;;;;5002522;28;20216;-88
2022/02/20 03:45:13;;;;;;;5.83;1.80;;;5.90;96.20;;;;;;5000289;28;20194;-88
2022/02/20 03:47:39;;;;;;;3.30;1.40;;;5.90;96.80;;;;;;5005964;28;20191;-88
2022/02/20 03:50:06;;;;;;;4.47;2.50;;;5.90;95.60;;;;;;5002422;28;20686;-88
2022/02/20 03:52:32;;;;;;;4.67;2.20;;;5.80;97.20;;;;;;4997950;28;20206;-88
2022/02/20 03:54:58;;;;;;;2.17;1.50;;;5.90;96.50;;;;;;4999019;28;20253;-88
2022/02/20 03:57:24;;;;;;;2.97;1.80;;;5.80;96.60;;;;;;5001955;28;20197;-88
2022/02/20 03:59:49;;;;;;;3.70;1.70;;;5.80;97.40;;;;;;4998451;28;20220;-88
2022/02/20 04:02:15;;;;;;;4.20;1.70;;;5.80;96.00;;;;;;5000252;28;20175;-88
2022/02/20 04:04:41;;;;;;;4.73;2.60;;;5.90;97.40;;;;;;4999907;28;20193;-88
2022/02/20 04:07:06;;;;;;;3.30;1.40;;;5.80;98.10;;;;;;4997166;28;20247;-88
2022/02/20 04:09:32;;;;;;;3.80;1.70;;;5.70;97.80;;;;;;4999362;28;20277;-88
2022/02/20 04:11:58;;;;;;;2.93;1.40;;;5.80;97.80;;;;;;5000854;28;20574;-88
2022/02/20 04:14:24;;;;;;;5.30;1.63;;;5.80;96.70;;;;;;4999863;28;20732;-89
2022/02/20 04:16:49;;;;;;;2.87;1.70;;;5.90;96.70;;;;;;5002153;28;20194;-88
2022/02/20 04:19:15;;;;;;;4.37;2.20;;;5.80;97.40;;;;;;5019891;28;20185;-88
2022/02/20 04:21:40;;;;;;;4.33;2.10;;;5.80;97.10;;;;;;5017307;28;20275;-88
2022/02/20 04:24:06;;;;;;;2.87;1.43;;;5.80;98.90;;;;;;4999077;28;20233;-88
2022/02/20 04:26:32;;;;;;;3.13;1.70;;;5.80;97.60;;;;;;5006038;28;20202;-88
2022/02/20 04:28:58;;;;;;;3.77;1.53;;;5.80;97.70;;;;;;5005303;28;20204;-89
2022/02/20 04:31:24;;;;;;;4.93;1.83;;;5.80;97.60;;;;;;5002877;28;20265;-88
2022/02/20 04:33:49;;;;;;;2.43;1.53;;;5.80;97.80;;;;;;5009300;28;20244;-89
2022/02/20 04:36:15;;;;;;;4.13;1.70;;;5.90;97.30;;;;;;5010978;28;20193;-88
2022/02/20 04:38:41;;;;;;;1.80;1.40;;;5.90;97.90;;;;;;5003490;28;20197;-88
2022/02/20 04:41:06;;;;;;;2.03;1.27;;;5.90;98.60;;;;;;4999800;28;20686;-88
2022/02/20 04:43:32;;;;;;;4.90;1.50;;;5.90;98.70;;;;;;5001156;28;20210;-88
2022/02/20 04:45:58;;;;;;;3.07;1.50;;;5.90;98.50;;;;;;4999847;28;20652;-88
2022/02/20 04:48:23;;;;;;;2.63;1.33;;;5.90;99.20;;;;;;4997288;28;20198;-88
2022/02/20 04:50:49;;;;;;;2.50;1.30;;;5.90;98.90;;;;;;5000246;28;20194;-88
2022/02/20 04:53:15;;;;;;;1.43;1.33;;;5.80;99.40;;;;;;5000013;28;20893;-88
2022/02/20 04:55:41;;;;;;;2.13;1.20;;;5.80;99.90;;;;;;5000760;28;20201;-88
2022/02/20 04:58:06;;;;;;;2.17;1.43;;;5.80;99.60;;;;;;4997892;28;20197;-88
2022/02/20 05:00:32;;;;;;;2.67;1.37;;;5.80;99.60;;;;;;5001734;28;20596;-88
2022/02/20 05:02:58;;;;;;;2.57;1.53;;;5.80;99.30;;;;;;4996678;28;20213;-89
2022/02/20 05:05:23;;;;;;;3.17;1.37;;;5.90;99.70;;;;;;4999708;28;20190;-89
2022/02/20 05:07:49;;;;;;;4.67;1.80;;;5.90;99.80;;;;;;4999206;28;20285;-88
2022/02/20 05:10:14;;;;;;;1.67;1.17;;;5.90;99.70;;;;;;4990298;28;20193;-88
2022/02/20 05:12:40;;;;;;;1.60;1.40;;;5.90;99.40;;;;;;4999888;28;20274;-89
2022/02/20 05:15:07;;;;;;;2.63;1.33;;;6.00;99.80;;;;;;5003490;28;20190;-89
2022/02/20 05:17:37;;;;;;;1.30;1.20;;;6.00;98.90;;;;;;5000754;28;20190;-89
2022/02/20 05:20:03;;;;;;;3.20;1.20;;;6.00;99.80;;;;;;5007044;28;20197;-89
2022/02/20 05:22:28;;;;;;;2.43;1.40;;;6.00;98.40;;;;;;5001039;28;20221;-88
2022/02/20 05:24:56;;;;;;;2.00;1.80;;;6.00;98.70;;;;;;4999601;28;20197;-88
2022/02/20 05:27:22;;;;;;;1.03;1.03;;;6.00;97.70;;;;;;4998858;28;20196;-89
2022/02/20 05:29:48;;;;;;;2.60;1.63;;;6.10;98.10;;;;;;4999896;28;20194;-88
2022/02/20 05:32:23;;;;;;;2.60;1.50;;;6.10;97.20;;;;;;5001705;28;20197;-88
2022/02/20 05:34:52;;;;;;;2.37;1.17;;;6.30;96.60;;;;;;5000554;28;20223;-89
2022/02/20 05:37:21;;;;;;;1.80;1.20;;;6.30;97.30;;;;;;4996563;28;20210;-89
2022/02/20 05:39:47;;;;;;;1.87;1.50;;;6.20;95.60;;;;;;5001507;28;20321;-89
2022/02/20 05:42:13;;;;;;;1.43;1.30;;;6.20;95.90;;;;;;5001436;28;20264;-89
2022/02/20 05:44:38;;;;;;;1.40;1.23;;;6.20;97.30;;;;;;4995699;28;20650;-88
2022/02/20 05:47:05;;;;;;;3.87;1.63;;;6.20;97.40;;;;;;5002451;28;20193;-87
2022/02/20 05:49:30;;;;;;;2.50;1.30;;;6.20;97.50;;;;;;5000368;28;20198;-89
2022/02/20 05:51:56;;;;;;;1.23;1.13;;;6.20;98.10;;;;;;4995900;28;20271;-89
2022/02/20 05:54:22;;;;;;;5.07;1.50;;;6.20;98.40;;;;;;5000413;28;20320;-89
2022/02/20 05:56:49;;;;;;;2.07;1.77;;;6.20;97.90;;;;;;5000093;28;20186;-89
2022/02/20 05:59:15;;;;;;;1.40;1.30;;;6.20;97.30;;;;;;4995674;28;20182;-89
2022/02/20 06:01:41;;;;;;;1.50;1.40;;;6.20;97.20;;;;;;5005047;28;20276;-88
2022/02/20 06:04:07;;;;;;;1.97;1.10;;;6.30;97.10;;;;;;4998514;28;20218;-89
2022/02/20 06:06:33;;;;;;;1.90;1.10;;;6.30;97.30;;;;;;4984559;28;20186;-89
2022/02/20 06:09:02;;;;;;;3.93;1.20;;;6.30;97.80;;;;;;4998623;28;20178;-88
2022/02/20 06:11:30;;;;;;;1.20;1.10;;;6.30;97.90;;;;;;5000741;28;20265;-89
2022/02/20 06:13:56;;;;;;;2.10;1.27;;;6.20;98.40;;;;;;5002275;28;20224;-88
2022/02/20 06:16:22;;;;;;;1.73;1.00;;;6.20;98.00;;;;;;5001108;28;20283;-89
2022/02/20 06:18:48;;;;;;;1.17;1.07;;;6.20;97.70;;;;;;5008627;28;20221;-89
2022/02/20 06:21:14;;;;;;;2.00;1.53;;;6.30;98.30;;;;;;5004383;28;20224;-88
2022/02/20 06:23:40;;;;;;;1.20;1.10;;;6.30;97.70;;;;;;5003521;28;20613;-88
2022/02/20 06:26:06;;;;;;;1.97;1.20;;;6.30;97.60;;;;;;5002283;28;20212;-88
2022/02/20 06:28:32;;;;;;;1.63;1.40;;;6.30;97.80;;;;;;5003615;28;20682;-88
2022/02/20 06:30:58;;;;;;;1.30;1.20;;;6.20;97.50;;;;;;5002199;28;20193;-88
2022/02/20 06:33:24;;;;;;;1.13;1.03;;;6.20;97.30;;;;;;5000561;28;20218;-87
2022/02/20 06:35:50;;;;;;;1.63;1.20;;;6.20;97.80;;;;;;5005408;28;20198;-88
2022/02/20 06:38:16;;;;;;;1.20;1.10;;;6.20;97.60;;;;;;5002573;28;20190;-87
2022/02/20 06:40:41;;;;;;;1.67;1.30;;;6.20;97.90;;;;;;5009644;28;20753;-88
2022/02/20 06:43:07;;;;;;;0.93;0.80;;;6.20;97.20;;;;;;5006635;28;20206;-89
2022/02/20 06:45:33;;;;;;;2.73;1.10;;;6.20;97.70;;;;;;5003520;28;20190;-88
2022/02/20 06:47:59;;;;;;;2.40;0.90;;;6.20;96.80;;;;;;5001430;28;20194;-88
2022/02/20 06:50:25;;;;;;;2.10;1.20;;;6.20;97.00;;;;;;5002269;28;20194;-89
2022/02/20 06:52:51;;;;;;;1.23;1.00;;;6.10;97.60;;;;;;5000799;28;20385;-88
2022/02/20 06:55:17;;;;;;;1.13;1.03;;;6.20;96.80;;;;;;4999469;28;20202;-88
2022/02/20 06:57:42;;;;;;;0.90;0.90;;;6.20;97.20;;;;;;5002272;28;20564;-88
2022/02/20 07:00:11;;;;;;;1.83;1.20;;;6.20;97.00;;;;;;5005688;28;20213;-89
2022/02/20 07:02:37;;;;;;;0.90;0.90;;;6.20;97.40;;;;;;5002924;28;20210;-89
2022/02/20 07:05:05;;;;;;;1.83;0.97;;;6.20;97.70;;;;;;5001033;28;20182;-88
2022/02/20 07:07:31;;;;;;;1.53;1.20;;;6.20;97.50;;;;;;5002543;28;20253;-88
2022/02/20 07:10:05;;;;;;;2.10;1.30;;;6.20;96.60;;;;;;5002950;28;20264;-89
2022/02/20 07:12:31;;;;;;;2.53;1.07;;;6.20;96.60;;;;;;4998199;28;20291;-88
2022/02/20 07:14:57;;;;;;;1.47;1.07;;;6.30;96.90;;;;;;5013578;28;20205;-88
2022/02/20 07:17:23;;;;;;;1.23;0.90;;;6.30;96.70;;;;;;5006111;28;20197;-88
2022/02/20 07:19:48;;;;;;;2.47;1.20;;;6.30;95.90;;;;;;5007390;28;20777;-88
2022/02/20 07:22:14;;;;;;;1.73;1.07;;;6.30;96.40;;;;;;5004628;28;20193;-89
2022/02/20 07:24:40;;;;;;;1.10;1.07;;;6.40;96.50;;;;;;4999863;28;20278;-89
2022/02/20 07:27:05;;;;;;;1.47;1.07;;;6.30;96.60;;;;;;5002444;28;20194;-88
2022/02/20 07:29:31;;;;;;;0.80;0.80;;;6.40;96.40;;;;;;4999926;28;20256;-88
2022/02/20 07:31:57;;;;;;;3.27;1.40;;;6.40;95.70;;;;;;4989274;28;20189;-89
2022/02/20 07:34:24;;;;;;;0.80;0.80;;;6.40;96.90;;;;;;4985449;28;20862;-88
2022/02/20 07:36:49;;;;;;;1.20;1.10;;;6.40;96.70;;;;;;4997075;28;20272;-87
2022/02/20 07:39:16;;;;;;;1.33;1.23;;;6.40;98.80;;;;;;4999661;28;20642;-87
2022/02/20 07:41:42;;;;;;;2.30;1.10;;;6.30;98.70;;;;;;5000820;28;20815;-89
2022/02/20 07:44:08;;;;;;;1.23;1.13;;;6.40;98.90;;;;;;5002849;28;20209;-91
2022/02/20 07:46:34;;;;;;;1.17;1.00;;;6.40;99.10;;;;;;5004396;28;20186;-89
2022/02/20 07:49:00;;;;;;;3.93;1.80;;;6.40;99.00;;;;;;4999090;28;20194;-89
2022/02/20 07:51:27;;;;;;;3.03;1.40;;;6.50;98.10;;;;;;5001210;28;20237;-90
2022/02/20 07:53:53;;;;;;;1.50;1.40;;;6.40;98.80;;;;;;5000061;28;20686;-89
2022/02/20 07:56:19;;;;;;;2.07;1.13;;;6.50;98.40;;;;;;5002594;28;20273;-90
2022/02/20 07:58:45;;;;;;;1.97;1.40;;;6.60;95.80;;;;;;5003305;28;20300;-90
2022/02/20 08:01:12;;;;;;;1.10;1.03;;;6.70;96.40;;;;;;5000756;28;20296;-90
2022/02/20 08:03:38;;;;;;;2.53;1.20;;;6.70;95.70;;;;;;5003196;28;20209;-90
2022/02/20 08:06:05;;;;;;;1.87;1.10;;;6.80;96.80;;;;;;5005991;28;20966;-91
2022/02/20 08:08:32;;;;;;;1.30;1.10;;;6.80;94.40;;;;;;5001438;28;20269;-88
2022/02/20 08:10:59;;;;;;;2.37;1.27;;;6.90;94.50;;;;;;5009350;28;20198;-90
2022/02/20 08:13:25;;;;;;;1.70;1.17;;;7.00;94.20;;;;;;5003992;28;20220;-90
2022/02/20 08:15:52;;;;;;;3.03;1.47;;;7.00;91.90;;;;;;4998539;28;20212;-90
2022/02/20 08:18:19;;;;;;;2.73;1.10;;;7.10;93.10;;;;;;5003426;28;20213;-90
2022/02/20 08:20:45;;;;;;;1.50;1.20;;;7.20;90.80;;;;;;5003045;28;20570;-90
2022/02/20 08:23:17;;;;;;;1.10;1.00;;;7.10;92.40;;;;;;5022881;28;20205;-90
2022/02/20 08:25:44;;;;;;;0.80;0.80;;;7.10;90.80;;;;;;5024684;28;20194;-90
2022/02/20 08:28:10;;;;;;;1.30;1.00;;;7.20;91.30;;;;;;5028351;28;20193;-90
2022/02/20 08:30:36;;;;;;;2.07;1.00;;;7.20;91.10;;;;;;5011180;28;20197;-90
2022/02/20 08:33:02;;;;;;;0.90;0.90;;;7.30;91.60;;;;;;5002161;28;20253;-90
2022/02/20 08:35:28;;;;;;;2.00;1.20;;;7.30;89.80;;;;;;5003817;28;20260;-90
2022/02/20 08:37:54;;;;;;;1.70;0.80;;;7.20;91.10;;;;;;5002428;28;20289;-91
2022/02/20 08:40:21;;;;;;;1.47;0.90;;;7.20;90.50;;;;;;5012064;28;20213;-90
2022/02/20 08:42:48;;;;;;;2.13;0.80;;;7.20;90.90;;;;;;5000415;28;20249;-91
2022/02/20 08:45:16;;;;;;;1.50;1.20;;;7.20;90.90;;;;;;5001277;28;20201;-90
2022/02/20 08:47:42;;;;;;;2.60;1.20;;;7.20;91.50;;;;;;5002683;28;20263;-90
2022/02/20 08:50:10;;;;;;;1.20;1.07;;;7.20;91.20;;;;;;5002198;28;20675;-89
2022/02/20 08:52:37;;;;;;;1.03;0.93;;;7.20;91.40;;;;;;5004568;28;20224;-90
2022/02/20 08:55:04;;;;;;;1.97;0.90;;;7.20;91.10;;;;;;5000444;28;20190;-90
2022/02/20 08:57:30;;;;;;;0.90;0.90;;;7.30;90.20;;;;;;4980012;28;20285;-90
2022/02/20 08:59:57;;;;;;;1.03;0.87;;;7.20;91.80;;;;;;4989821;28;20228;-89
2022/02/20 09:02:23;;;;;;;1.10;1.00;;;7.20;91.60;;;;;;5002030;28;20284;-88
2022/02/20 09:04:49;;;;;;;2.30;0.97;;;7.30;91.20;;;;;;5005273;28;20209;-89
2022/02/20 09:07:14;;;;;;;1.27;1.10;;;7.40;90.70;;;;;;5002527;28;20198;-88
2022/02/20 09:09:40;;;;;;;1.40;1.30;;;7.30;90.50;;;;;;4999685;28;20209;-89
2022/02/20 09:12:06;;;;;;;1.13;1.10;;;7.40;90.70;;;;;;5001602;28;20257;-89
2022/02/20 09:14:33;;;;;;;1.73;1.23;;;7.30;90.80;;;;;;5001712;28;20201;-88
2022/02/20 09:17:02;;;;;;;1.20;1.10;;;7.30;90.90;;;;;;5000837;28;20606;-88
2022/02/20 09:19:28;;;;;;;1.33;1.17;;;7.40;90.60;;;;;;5001457;28;20194;-89
2022/02/20 09:21:54;;;;;;;1.37;1.27;;;7.30;90.50;;;;;;4997356;28;20217;-91
2022/02/20 09:24:20;;;;;;;1.43;1.20;;;7.30;90.30;;;;;;4999558;28;20221;-91
2022/02/20 09:26:47;;;;;;;2.47;1.43;;;7.40;90.30;;;;;;5002672;28;20189;-90
2022/02/20 09:29:13;;;;;;;1.90;1.23;;;7.30;90.90;;;;;;4999433;28;20284;-90
2022/02/20 09:31:39;;;;;;;2.57;1.30;;;7.40;89.70;;;;;;4995435;28;20209;-90
2022/02/20 09:34:05;;;;;;;1.30;1.20;;;7.40;88.70;;;;;;4994758;28;20280;-90
2022/02/20 09:36:31;;;;;;;1.47;1.13;;;7.40;89.00;;;;;;5012991;28;20197;-90
2022/02/20 09:38:57;;;;;;;2.40;1.40;;;7.40;89.90;;;;;;4997567;28;20208;-90
2022/02/20 09:41:26;;;;;;;2.03;1.30;;;7.50;89.60;;;;;;4999633;28;20221;-89
2022/02/20 09:43:55;;;;;;;1.30;1.10;;;7.50;89.70;;;;;;5001456;28;20375;-90
2022/02/20 09:46:21;;;;;;;3.87;1.90;;;7.60;89.20;;;;;;5001669;28;20649;-90
2022/02/20 09:48:51;;;;;;;0.93;0.93;;;7.70;89.30;;;;;;5015762;28;20287;-90
2022/02/20 09:51:16;;;;;;;0.87;0.83;;;7.70;88.50;;;;;;5020706;28;20292;-90
2022/02/20 09:53:42;;;;;;;1.57;1.20;;;7.70;88.10;;;;;;5005753;28;20307;-90
2022/02/20 09:56:08;;;;;;;0.83;0.83;;;7.70;88.80;;;;;;5013693;28;20214;-90
2022/02/20 09:58:35;;;;;;;1.20;1.10;;;7.70;89.30;;;;;;5005232;28;20252;-91
2022/02/20 10:01:07;;;;;;;1.30;1.20;;;7.80;89.40;;;;;;5018121;28;20232;-88
2022/02/20 10:03:38;;;;;;;1.00;1.00;;;7.80;88.60;;;;;;5035999;28;20190;-88
2022/02/20 10:06:21;;;;;;;2.70;1.40;;;7.90;88.80;;;;;;5016535;28;20198;-89
2022/02/20 10:08:49;;;;;;;1.37;1.17;;;7.80;89.90;;;;;;5029194;28;20615;-89
2022/02/20 10:11:19;;;;;;;1.97;1.30;;;8.00;87.80;;;;;;4992215;28;20193;-90
2022/02/20 10:13:47;;;;;;;1.30;1.20;;;7.90;88.00;;;;;;5003340;28;20221;-90
2022/02/20 10:16:21;;;;;;;1.00;0.90;;;8.00;88.00;;;;;;5006294;28;20186;-90
2022/02/20 10:18:48;;;;;;;2.90;1.30;;;8.00;88.20;;;;;;5003559;28;20266;-90
2022/02/20 10:21:26;;;;;;;1.47;1.20;;;8.00;88.20;;;;;;5001490;28;20205;-89
2022/02/20 10:23:53;;;;;;;1.87;1.30;;;8.10;87.30;;;;;;5001348;28;20213;-89
2022/02/20 10:26:24;;;;;;;1.47;1.37;;;8.20;87.90;;;;;;5000805;28;20190;-89
2022/02/20 10:29:03;;;;;;;1.37;1.17;;;8.10;87.60;;;;;;4997088;28;20193;-89
2022/02/20 10:31:54;;;;;;;1.27;1.10;;;8.20;88.00;;;;;;5005882;28;20217;-90
2022/02/20 10:34:24;;;;;;;1.50;1.10;;;8.20;87.00;;;;;;5004726;28;20225;-89
2022/02/20 10:36:59;;;;;;;2.07;1.20;;;8.20;87.60;;;;;;5001042;28;20816;-89
2022/02/20 10:39:36;;;;;;;3.07;1.10;;;8.20;87.90;;;;;;5005197;28;20197;-89
2022/02/20 10:42:12;;;;;;;3.13;1.37;;;8.20;87.60;;;;;;5008790;28;20189;-90
2022/02/20 10:44:51;;;;;;;1.70;1.17;;;8.30;87.00;;;;;;5006852;28;20204;-90
2022/02/20 10:47:18;;;;;;;1.20;1.10;;;8.40;87.00;;;;;;5003676;28;20212;-90
2022/02/20 10:49:44;;;;;;;2.43;1.60;;;8.40;85.70;;;;;;5009511;28;20181;-92
2022/02/20 10:52:28;;;;;;;1.50;1.07;;;8.40;87.20;;;;;;5009778;28;20185;-90
2022/02/20 10:55:09;;;;;;;1.97;1.57;;;8.40;87.30;;;;;;5006174;28;20205;-90
2022/02/20 10:57:39;;;;;;;2.77;1.70;;;8.50;88.00;;;;;;5003017;28;20190;-90
2022/02/20 11:00:14;;;;;;;2.67;1.63;;;8.50;89.20;;;;;;5005746;28;20209;-89
2022/02/20 11:02:41;;;;;;;1.77;1.30;;;8.30;88.40;;;;;;4998857;23;20290;-93
2022/02/20 11:05:07;;;;;;;1.40;1.30;;;8.40;88.70;;;;;;5024574;28;20208;-93
2022/02/20 11:07:37;;;;;;;2.37;1.43;;;8.40;89.10;;;;;;5030227;28;20650;-93
2022/02/20 11:10:08;;;;;;;1.53;1.30;;;8.50;89.00;;;;;;5033539;28;20188;-93
2022/02/20 11:12:36;;;;;;;2.13;1.50;;;8.50;89.50;;;;;;5033199;28;20201;-91
2022/02/20 11:15:22;;;;;;;1.43;1.30;;;8.50;89.40;;;;;;5032381;28;20193;-92
2022/02/20 11:17:50;;;;;;;1.20;1.20;;;8.50;88.60;;;;;;5028861;28;20248;-92
2022/02/20 11:20:17;;;;;;;2.73;1.47;;;8.50;88.00;;;;;;5016344;28;20223;-92
2022/02/20 11:22:48;;;;;;;2.30;1.30;;;8.50;89.80;;;;;;4997773;28;20190;-92
2022/02/20 11:25:14;;;;;;;2.20;1.20;;;8.60;87.80;;;;;;5031323;28;20192;-93
2022/02/20 11:27:42;;;;;;;1.83;1.03;;;8.60;87.60;;;;;;5032381;28;20279;-93
2022/02/20 11:30:08;;;;;;;2.07;1.57;;;8.50;88.00;;;;;;5026421;28;20197;-93
2022/02/20 11:32:41;;;;;;;2.13;1.30;;;8.50;88.90;;;;;;5036347;28;20660;-94
2022/02/20 11:35:09;;;;;;;1.63;1.40;;;8.50;88.80;;;;;;5031100;28;20680;-93
2022/02/20 11:37:56;;;;;;;4.93;1.53;;;8.60;88.30;;;;;;5032596;28;20251;-92
2022/02/20 11:40:23;;;;;;;1.33;1.23;;;8.50;89.10;;;;;;5033149;28;20266;-93
2022/02/20 11:43:08;;;;;;;1.97;1.20;;;8.60;89.00;;;;;;5032721;28;20209;-90
2022/02/20 11:45:37;;;;;;;1.40;1.30;;;8.60;88.20;;;;;;5024706;28;20246;-93
2022/02/20 11:48:08;;;;;;;2.90;1.40;;;8.60;87.60;;;;;;5012534;28;20245;-93
2022/02/20 11:50:52;;;;;;;1.37;1.27;;;8.70;86.80;;;;;;5032775;28;20191;-93
2022/02/20 11:53:28;;;;;;;1.50;1.40;;;8.70;87.70;;;;;;5031324;28;20325;-91
2022/02/20 11:56:05;;;;;;;1.40;1.30;;;8.80;86.80;;;;;;5023436;28;20210;-93
2022/02/20 11:58:31;;;;;;;2.60;1.40;;;8.80;86.90;;;;;;5013269;28;20205;-92
2022/02/20 12:00:56;;;;;;;1.93;1.60;;;8.80;87.50;;;;;;5019509;28;20344;-93
2022/02/20 12:03:41;;;;;;;1.50;1.40;;;8.80;86.30;;;;;;5034560;28;20200;-94
2022/02/20 12:06:10;;;;;;;3.17;1.63;;;8.80;86.00;;;;;;5032348;28;20632;-92
2022/02/20 12:08:45;;;;;;;1.57;1.27;;;8.90;85.80;;;;;;5030005;28;20247;-93
2022/02/20 12:11:21;;;;;;;1.47;1.37;;;8.90;86.20;;;;;;5012894;28;20663;-91
2022/02/20 12:13:49;;;;;;;1.37;1.20;;;9.10;85.20;;;;;;5038849;28;20372;-91
2022/02/20 12:16:39;;;;;;;1.40;1.30;;;9.20;85.00;;;;;;5022867;28;20200;-93
2022/02/20 12:19:20;;;;;;;1.73;1.57;;;9.20;84.20;;;;;;5031005;28;20271;-93
2022/02/20 12:22:04;;;;;;;1.40;1.30;;;9.30;84.80;;;;;;5032644;28;20338;-91
2022/02/20 12:24:39;;;;;;;3.33;3.03;;;9.40;84.80;;;;;;5031002;28;20267;-90
2022/02/20 12:27:05;;;;;;;2.67;1.30;;;9.50;82.60;;;;;;5029276;28;20188;-90
2022/02/20 12:29:55;;;;;;;1.53;1.40;;;9.50;84.20;;;;;;5031113;28;20294;-90
2022/02/20 12:32:32;;;;;;;2.33;1.30;;;9.60;83.10;;;;;;5031453;28;20197;-91
2022/02/20 12:35:00;;;;;;;1.10;1.10;;;9.60;82.20;;;;;;5030523;28;20199;-90
2022/02/20 12:37:37;;;;;;;1.37;1.10;;;9.50;83.80;;;;;;5026196;28;20197;-92
2022/02/20 12:40:21;;;;;;;2.57;1.37;;;9.60;82.50;;;;;;5028379;28;20331;-90
2022/02/20 12:43:03;;;;;;;1.70;1.20;;;9.70;82.60;;;;;;5028479;28;20699;-91
2022/02/20 12:45:31;;;;;;;4.00;1.50;;;9.60;82.90;;;;;;5026828;28;20189;-90
2022/02/20 12:47:59;;;;;;;1.60;1.40;;;9.70;82.90;;;;;;5026918;28;20672;-90
2022/02/20 12:50:32;;;;;;;1.77;1.47;;;9.70;82.30;;;;;;5022862;28;20205;-91
2022/02/20 12:52:58;;;;;;;1.67;1.43;;;9.80;83.10;;;;;;5024316;28;20204;-91
2022/02/20 12:55:25;;;;;;;1.50;1.40;;;9.80;83.30;;;;;;5030089;28;20216;-92
2022/02/20 12:58:00;;;;;;;2.07;1.50;;;9.80;83.10;;;;;;5030869;28;20209;-91
2022/02/20 13:00:28;;;;;;;2.77;1.97;;;9.80;83.10;;;;;;5030149;28;20212;-93
2022/02/20 13:02:57;;;;;;;2.03;1.43;;;9.70;83.30;;;;;;5028638;28;20200;-91